• Join FlightAware (Why Join?)
  • Login
  • US Flag 
01:20AM EDT


 

Airport Tracker/Info


-or-


 

Live Flight TrackerFlight Track Log ✈ N208D ✈ 26-Apr-2012 ✈ KFDK - KTEB

Flight Track Log - Related Links

Times and Time Zones

All times are in EDT time to prevent confusion due to time zone crossing. See the N208D flight status page for this flight to view local times or setup timezone preferences in your user account.

Time Position Orientation Groundspeed Altitude Reporting Facility
EDT Latitude Longitude Course Direction KTS MPH feet Rate Location/Type
10:10PM 39.3833 -77.3500 67° East 132 152 2,300  Level Potomac TRACON
10:11PM 39.4000 -77.3000 72° East 136 157 2,900 300 Climbing Potomac TRACON
10:12PM 39.4167 -77.2333 67° East 175 201 3,000 480 Climbing Potomac TRACON
10:14PM 39.4333 -77.1833 67° East 154 177 4,000 960 Climbing Potomac TRACON
10:15PM 39.4500 -77.1333 67° East 142 163 5,000 420 Climbing Potomac TRACON
10:16PM 39.4667 -77.0833 49° Northeast 174 200 5,000 -60 Level Potomac TRACON
10:17PM 39.5000 -77.0333 67° East 178 205 4,900  Descending Potomac TRACON
10:17PM 39.5167 -76.9833 57° Northeast 177 204 5,000  Climbing Potomac TRACON
10:19PM 39.5500 -76.9167 49° Northeast 175 201 4,900  Descending Potomac TRACON
10:20PM 39.5833 -76.8667 67° East 175 201 5,000  Climbing Potomac TRACON
10:21PM 39.6000 -76.8167 45° Northeast 180 207 5,000  Level Potomac TRACON
11:00PM 40.9167 -75.0333 72° East 191 220 5,000 -60 Level New York TRACON
11:01PM 40.9333 -74.9667 72° East 195 224 4,900 -420 Descending New York TRACON
11:02PM 40.9500 -74.9000 90° East 215 247 4,200 -480 Descending New York TRACON
11:03PM 40.9500 -74.8167 72° East 201 231 4,000 -120 Descending New York TRACON
11:04PM 40.9667 -74.7500 75° East 192 221 4,000 -240 Level New York TRACON
11:05PM 40.9833 -74.6667 90° East 204 235 3,500 -480 Descending New York TRACON
11:06PM 40.9833 -74.6000 72° East 205 236 3,100 -300 Descending New York TRACON
11:07PM 41.0000 -74.5333 90° East 190 219 3,000 -60 Descending New York TRACON
11:08PM 41.0000 -74.4667 90° East 186 214 3,000  Level New York TRACON
11:09PM 41.0000 -74.4000 72° East 182 209 3,000  Level New York TRACON
11:10PM 41.0167 -74.3333 72° East 182 209 3,000  Level New York TRACON